Information Last Ob Photographs Calibration Meteogram Network Table Neighbors Monthly Summaries Observation History Wind Roses Custom Wind Roses Data Calendar Satellite Cloud Product Download

25 February 2024 Observation History, [OLZ] OELWEIN, timezone: America/Chicago

Select Date: Time Order:

Show METARs   Show High Frequency MADIS

Previous Day
Time Wind
(mph)
Vis.
(mi.)
Sky Cond.
(100s ft)
Present Wx Temperature (ºF) Relative
Humidity
Pressure Snow
Depth
(in)
Precipitation (in.)
Air Dwpt Feels Like 6 hour altimeter
(in.)
sea level
(mb)
1 hr 3 hr 6 hr
Max.Min.
12:15 AMS 1210 CLR
301921 64% 29.760
KOLZ 250615Z AUTO 18010KT 10SM CLR M01/M07 A2976 RMK A01
12:35 AMS 1210 CLR
302121 69% 29.750
KOLZ 250635Z AUTO 18010KT 10SM CLR M01/M06 A2975 RMK A01
12:55 AMS 1010 CLR
302121 69% 29.740
KOLZ 250655Z AUTO 18009KT 10SM CLR M01/M06 A2974 RMK A01
1:15 AMS 1010 CLR
302121 69% 29.730
KOLZ 250715Z AUTO 17009KT 10SM CLR M01/M06 A2973 RMK A01
1:35 AMS 1010 CLR
302121 69% 29.730
KOLZ 250735Z AUTO 18009KT 10SM CLR M01/M06 A2973 RMK A01
1:55 AMS 910 CLR
282120 74% 29.730
KOLZ 250755Z AUTO 17008KT 10SM CLR M02/M06 A2973 RMK A01
2:15 AMS 910 CLR
282320 80% 29.720
KOLZ 250815Z AUTO 18008KT 10SM CLR M02/M05 A2972 RMK A01
2:35 AMS 810 CLR
282320 80% 29.710
KOLZ 250835Z AUTO 18007KT 10SM CLR M02/M05 A2971 RMK A01
2:55 AMS 810 CLR
272318 86% 29.710
KOLZ 250855Z AUTO 17007KT 10SM CLR M03/M05 A2971 RMK A01
3:15 AMS 710 CLR
272319 86% 29.70
KOLZ 250915Z AUTO 17006KT 10SM CLR M03/M05 A2970 RMK A01
3:35 AMS 510 CLR
272321 86% 29.70
KOLZ 250935Z AUTO 17004KT 10SM CLR M03/M05 A2970 RMK A01
3:55 AMS 610 CLR
272320 86% 29.70
KOLZ 250955Z AUTO 18005KT 10SM CLR M03/M05 A2970 RMK A01
4:15 AMS 810 CLR
252316 93% 29.70
KOLZ 251015Z AUTO 18007KT 10SM CLR M04/M05 A2970 RMK A01
4:35 AMS 910 SCT110
252315 93% 29.70
KOLZ 251035Z AUTO 18008KT 10SM SCT110 M04/M05 A2970 RMK A01
4:55 AMS 910 FEW110
252315 93% 29.70
KOLZ 251055Z AUTO 18008KT 10SM FEW110 M04/M05 A2970 RMK A01
5:15 AMS 810 SCT110
272518 93% 29.70
KOLZ 251115Z AUTO 18007KT 10SM SCT110 M03/M04 A2970 RMK A01
5:35 AMSSW 810 SCT100
252516 100% 29.70
KOLZ 251135Z AUTO 19007KT 10SM SCT100 M04/M04 A2970 RMK A01
5:55 AMSSW 710 SCT100
252317 93% 29.70
KOLZ 251155Z AUTO 19006KT 10SM SCT100 M04/M05 A2970 RMK A01
6:15 AMSSW 610 FEW100
252318 93% 29.710
KOLZ 251215Z AUTO 19005KT 10SM FEW100 M04/M05 A2971 RMK A01
6:35 AMSSW 610 SCT110
252518 100% 29.710
KOLZ 251235Z AUTO 20005KT 10SM SCT110 M04/M04 A2971 RMK A01
6:55 AMSSW 610 OVC100
272720 100% 29.720
KOLZ 251255Z AUTO 20005KT 10SM OVC100 M03/M03 A2972 RMK A01

The IEM API webservice that provided data to this page. For more details, see documentation.

Data Notes

  • For recent years, this page also optionally shows observations from the MADIS High Frequency METAR dataset. This dataset had a problem with temperatures detailed here.